Pagrindinis puslapis
METAR-TAF:

METAR-TAF

Oro uostai :

Riberalta, Bolivija

platuma: 11-00S, ilguma: 066-07W, Aukštis: 141 m

Dabartinis oras

Ataskaita buvo paskelbta 5 valandos ir 15 minutes, ne 23:00 UTC
Ramus vėjas
Temperatūra 29°C
Drėgmė 79%
Slėgis 1007 hPa
Matomumas 10 km arba daugiau
Išsisklaidę debesys ne aukštis 1500 ft
Mažai debesys ne aukštis 2000 ft, Liūtiniai kamuoliniai debesys.
Su prošvaistėmis ne aukštis 20000 ft

METAR: SLRI 162300Z 00000KT 9999 SCT015 FEW020CB BKN200 29/25 Q1007

Laikas: 00:15 (04:15 UTC)


TAF: trūkstamas

Orai ataskaitas ir orų prognozės (METAR, TAF).

turimą stotys yra geltonos ir raudonos taškus žemėlapyje.

Perkelti pele per norėdami pamatyti stoties vardą.

Tada spustelėkite, norėdami matyti oro stebėjimo ir prognozės.

Norėdami pakeisti žemėlapį: spustelėkite ant žalios mygtukų su juodo kryžiaus žemyn,; žalią mygtuką su brūkšneliu, jei norite nutolinti; arba žalių rodyklių gretimoms žemėlapius.


METAR-TAF: